Time;durP1;ratioP1;P1;durP2;ratioP2;P2;SDS_P1;SDS_P2;PMS_P1;PMS_P2;Temp;Humidity;BMP_temperature;BMP_pressure;BME280_temperature;BME280_humidity;BME280_pressure;Samples;Min_cycle;Max_cycle;Signal;HPM_P1;HPM_P2
2022/05/28 00:00:51;;;;;;;1.98;1.08;;;;;;;;;;5014202;28;20097;-60
2022/05/28 00:03:18;;;;;;;3.72;1.05;;;;;;;;;;5014139;28;20113;-60
2022/05/28 00:05:44;;;;;;;1.95;1.15;;;;;;;;;;5013491;28;20102;-60
2022/05/28 00:08:10;;;;;;;1.67;0.90;;;;;;;;;;5012327;28;20037;-60
2022/05/28 00:10:36;;;;;;;2.33;1.15;;;;;;;;;;5013466;28;20017;-60
2022/05/28 00:13:03;;;;;;;1.88;1.05;;;;;;;;;;5013095;28;20467;-60
2022/05/28 00:15:29;;;;;;;4.00;1.30;;;;;;;;;;5013271;28;20037;-60
2022/05/28 00:17:55;;;;;;;2.47;1.27;;;;;;;;;;5012459;28;20101;-60
2022/05/28 00:20:21;;;;;;;2.45;1.00;;;;;;;;;;5013353;28;20038;-59
2022/05/28 00:22:47;;;;;;;2.67;1.00;;;;;;;;;;5013466;28;20022;-60
2022/05/28 00:25:14;;;;;;;3.40;1.05;;;;;;;;;;5012240;28;20651;-59
2022/05/28 00:27:41;;;;;;;2.05;1.10;;;;;;;;;;5013066;28;20038;-60
2022/05/28 00:30:08;;;;;;;2.50;1.20;;;;;;;;;;5012048;28;20582;-59
2022/05/28 00:32:34;;;;;;;3.72;1.55;;;;;;;;;;5013124;28;20467;-60
2022/05/28 00:35:00;;;;;;;3.50;1.95;;;;;;;;;;5012060;28;20033;-59
2022/05/28 00:37:26;;;;;;;3.00;1.02;;;;;;;;;;5013189;28;20049;-60
2022/05/28 00:39:52;;;;;;;2.40;1.05;;;;;;;;;;5012536;28;20105;-59
2022/05/28 00:42:18;;;;;;;3.42;1.08;;;;;;;;;;5012468;28;20105;-60
2022/05/28 00:44:44;;;;;;;1.50;0.90;;;;;;;;;;5012903;28;20033;-60
2022/05/28 00:47:10;;;;;;;2.10;1.02;;;;;;;;;;5011884;28;20053;-60
2022/05/28 00:49:37;;;;;;;3.03;1.45;;;;;;;;;;5013061;28;20049;-60
2022/05/28 00:52:07;;;;;;;3.17;1.27;;;;;;;;;;5011985;28;20061;-59
2022/05/28 00:54:35;;;;;;;2.83;1.15;;;;;;;;;;5013018;28;20450;-60
2022/05/28 00:57:02;;;;;;;5.38;1.27;;;;;;;;;;5012066;28;20040;-59
2022/05/28 00:59:28;;;;;;;2.63;1.20;;;;;;;;;;5012503;28;20034;-60
2022/05/28 01:01:58;;;;;;;3.22;1.27;;;;;;;;;;5012181;28;20033;-59
2022/05/28 01:04:32;;;;;;;3.25;1.08;;;;;;;;;;5012575;28;20025;-60
2022/05/28 01:07:08;;;;;;;2.38;1.27;;;;;;;;;;5011922;28;20038;-59
2022/05/28 01:09:34;;;;;;;3.03;1.02;;;;;;;;;;5011254;28;20025;-59
2022/05/28 01:12:20;;;;;;;3.13;1.17;;;;;;;;;;5011516;28;20038;-59
2022/05/28 01:14:55;;;;;;;2.80;1.15;;;;;;;;;;5011366;28;20038;-60
2022/05/28 01:17:40;;;;;;;3.78;0.93;;;;;;;;;;5011905;28;20034;-60
2022/05/28 01:20:06;;;;;;;4.15;1.55;;;;;;;;;;5011542;28;20033;-59
2022/05/28 01:22:42;;;;;;;2.70;1.13;;;;;;;;;;5012392;28;20025;-60
2022/05/28 01:25:11;;;;;;;3.78;1.23;;;;;;;;;;5011545;28;20067;-60
2022/05/28 01:27:41;;;;;;;3.92;1.25;;;;;;;;;;5011746;28;20494;-60
2022/05/28 01:30:09;;;;;;;1.33;1.00;;;;;;;;;;5011281;28;20018;-60
2022/05/28 01:32:36;;;;;;;5.28;1.23;;;;;;;;;;5012062;28;20014;-60
2022/05/28 01:35:03;;;;;;;2.25;1.30;;;;;;;;;;5011273;28;20586;-59
2022/05/28 01:37:30;;;;;;;2.60;1.10;;;;;;;;;;5012202;28;20041;-60
2022/05/28 01:39:57;;;;;;;2.90;1.50;;;;;;;;;;5011551;28;20024;-59
2022/05/28 01:42:25;;;;;;;3.15;1.30;;;;;;;;;;5012007;28;20061;-60
2022/05/28 01:44:52;;;;;;;2.33;1.30;;;;;;;;;;5012018;28;20022;-59
2022/05/28 01:47:19;;;;;;;2.22;1.38;;;;;;;;;;5011090;28;20081;-60
2022/05/28 01:49:46;;;;;;;2.97;1.25;;;;;;;;;;5011416;28;20376;-60
2022/05/28 01:52:13;;;;;;;2.55;1.33;;;;;;;;;;5011382;28;20101;-60
2022/05/28 01:54:44;;;;;;;2.97;1.23;;;;;;;;;;5011767;28;20109;-60
2022/05/28 01:57:12;;;;;;;2.90;1.30;;;;;;;;;;5010950;28;20030;-60
2022/05/28 01:59:38;;;;;;;3.53;1.52;;;;;;;;;;5011938;28;20042;-59
2022/05/28 02:02:06;;;;;;;2.33;1.20;;;;;;;;;;5010950;28;20379;-59
2022/05/28 02:04:33;;;;;;;6.65;1.95;;;;;;;;;;5011823;28;20025;-60
2022/05/28 02:06:59;;;;;;;2.78;1.38;;;;;;;;;;5011095;28;20030;-59
2022/05/28 02:09:30;;;;;;;3.30;1.10;;;;;;;;;;5011313;28;20022;-60
2022/05/28 02:11:59;;;;;;;5.20;1.23;;;;;;;;;;5011239;28;20037;-60
2022/05/28 02:14:37;;;;;;;3.15;1.50;;;;;;;;;;5011810;28;20494;-60
2022/05/28 02:17:15;;;;;;;1.83;1.00;;;;;;;;;;5010839;28;20042;-59
2022/05/28 02:19:50;;;;;;;4.32;1.17;;;;;;;;;;5011857;28;20058;-60
2022/05/28 02:22:17;;;;;;;3.05;1.30;;;;;;;;;;5010590;28;20034;-59
2022/05/28 02:24:50;;;;;;;4.05;1.23;;;;;;;;;;5011652;28;20029;-59
2022/05/28 02:27:17;;;;;;;3.17;1.13;;;;;;;;;;5013269;28;20510;-60
2022/05/28 02:29:43;;;;;;;1.52;0.98;;;;;;;;;;5015346;28;20483;-60
2022/05/28 02:32:20;;;;;;;4.55;2.03;;;;;;;;;;5014324;28;20026;-60
2022/05/28 02:34:46;;;;;;;3.03;1.10;;;;;;;;;;5015115;28;20029;-59
2022/05/28 02:37:16;;;;;;;3.70;1.10;;;;;;;;;;5014627;28;20037;-60
2022/05/28 02:39:42;;;;;;;3.05;1.67;;;;;;;;;;4997968;28;20371;-60
2022/05/28 02:42:08;;;;;;;7.15;1.90;;;;;;;;;;5014381;28;20034;-60
2022/05/28 02:44:34;;;;;;;3.00;1.17;;;;;;;;;;5015037;28;20033;-60
2022/05/28 02:47:01;;;;;;;4.35;1.83;;;;;;;;;;5013969;28;20128;-59
2022/05/28 02:49:27;;;;;;;2.17;1.02;;;;;;;;;;5015087;28;20029;-60
2022/05/28 02:51:53;;;;;;;3.95;1.35;;;;;;;;;;5015037;28;20030;-60
2022/05/28 02:54:19;;;;;;;4.78;1.63;;;;;;;;;;5014068;28;20046;-60
2022/05/28 02:56:46;;;;;;;4.43;1.40;;;;;;;;;;5014979;28;20030;-60
2022/05/28 02:59:12;;;;;;;2.90;1.40;;;;;;;;;;5013909;28;20100;-59
2022/05/28 03:01:38;;;;;;;2.17;1.02;;;;;;;;;;5014864;28;20125;-60
2022/05/28 03:04:05;;;;;;;2.65;1.20;;;;;;;;;;5013904;28;20041;-59
2022/05/28 03:06:31;;;;;;;3.58;1.23;;;;;;;;;;5014540;28;20034;-60
2022/05/28 03:08:57;;;;;;;2.45;1.20;;;;;;;;;;5014931;28;20026;-60
2022/05/28 03:11:23;;;;;;;5.18;1.30;;;;;;;;;;5013805;28;20036;-60
2022/05/28 03:13:49;;;;;;;2.25;1.30;;;;;;;;;;5014526;28;20097;-60
2022/05/28 03:16:15;;;;;;;2.45;1.17;;;;;;;;;;5013957;28;20030;-60
2022/05/28 03:18:41;;;;;;;3.53;1.13;;;;;;;;;;5014514;28;20026;-60
2022/05/28 03:21:08;;;;;;;2.75;1.27;;;;;;;;;;5013833;28;20451;-59
2022/05/28 03:23:34;;;;;;;2.83;1.10;;;;;;;;;;5014891;28;20021;-60
2022/05/28 03:26:13;;;;;;;2.78;1.30;;;;;;;;;;5014677;28;20108;-60
2022/05/28 03:28:39;;;;;;;4.28;1.48;;;;;;;;;;5014495;28;20033;-60
2022/05/28 03:31:05;;;;;;;4.93;1.10;;;;;;;;;;5013636;28;20033;-59
2022/05/28 03:33:31;;;;;;;4.65;1.50;;;;;;;;;;5014400;28;20383;-60
2022/05/28 03:35:57;;;;;;;2.92;1.23;;;;;;;;;;5014130;28;20065;-60
2022/05/28 03:38:23;;;;;;;3.63;1.10;;;;;;;;;;5012832;28;20524;-60
2022/05/28 03:40:49;;;;;;;4.43;1.55;;;;;;;;;;5014243;28;20029;-60
2022/05/28 03:43:15;;;;;;;3.92;1.55;;;;;;;;;;5013122;28;20099;-59
2022/05/28 03:45:41;;;;;;;4.28;1.10;;;;;;;;;;5013876;28;20042;-60
2022/05/28 03:48:09;;;;;;;4.72;1.40;;;;;;;;;;5013244;28;20098;-60
2022/05/28 03:50:35;;;;;;;5.78;1.27;;;;;;;;;;5013559;28;20026;-61
2022/05/28 03:53:01;;;;;;;4.18;1.42;;;;;;;;;;5013618;28;20026;-60
2022/05/28 03:55:27;;;;;;;2.80;1.23;;;;;;;;;;5013248;28;20029;-60
2022/05/28 03:57:53;;;;;;;4.28;1.20;;;;;;;;;;5013903;28;20025;-60
2022/05/28 04:00:19;;;;;;;6.15;1.65;;;;;;;;;;5013032;28;20037;-60
2022/05/28 04:02:45;;;;;;;2.83;1.08;;;;;;;;;;5013987;28;20073;-60
2022/05/28 04:05:11;;;;;;;3.15;1.10;;;;;;;;;;5012561;28;20029;-60
2022/05/28 04:07:38;;;;;;;3.30;1.10;;;;;;;;;;5013621;28;20034;-60
2022/05/28 04:10:05;;;;;;;3.00;1.17;;;;;;;;;;5013496;28;20088;-60
2022/05/28 04:12:31;;;;;;;2.20;1.00;;;;;;;;;;5013429;28;20026;-60
2022/05/28 04:14:57;;;;;;;3.20;1.10;;;;;;;;;;5013565;28;20025;-60
2022/05/28 04:17:23;;;;;;;2.35;0.93;;;;;;;;;;5012767;28;20033;-60
2022/05/28 04:19:49;;;;;;;2.85;1.25;;;;;;;;;;5013133;28;20379;-60
2022/05/28 04:22:15;;;;;;;3.38;1.63;;;;;;;;;;5012539;28;20026;-61
2022/05/28 04:24:41;;;;;;;4.07;1.60;;;;;;;;;;5013483;28;20035;-60
2022/05/28 04:27:08;;;;;;;6.18;1.67;;;;;;;;;;5012418;28;20045;-59
2022/05/28 04:29:34;;;;;;;3.72;1.27;;;;;;;;;;5013120;28;20044;-60
2022/05/28 04:32:00;;;;;;;4.10;1.30;;;;;;;;;;5012939;28;20041;-60
2022/05/28 04:34:26;;;;;;;3.42;1.10;;;;;;;;;;5012136;28;20030;-60
2022/05/28 04:36:52;;;;;;;3.15;1.30;;;;;;;;;;5013237;28;20041;-59
2022/05/28 04:39:18;;;;;;;4.40;1.20;;;;;;;;;;5012352;28;20026;-60
2022/05/28 04:41:45;;;;;;;4.75;1.30;;;;;;;;;;5012628;28;20025;-60
2022/05/28 04:44:10;;;;;;;4.65;1.48;;;;;;;;;;5012245;28;20462;-59
2022/05/28 04:46:37;;;;;;;2.75;1.10;;;;;;;;;;5012738;28;20049;-60
2022/05/28 04:49:04;;;;;;;4.00;1.40;;;;;;;;;;5012635;28;20052;-60
2022/05/28 04:51:30;;;;;;;3.97;1.63;;;;;;;;;;5011443;28;20037;-60
2022/05/28 04:53:56;;;;;;;3.85;1.17;;;;;;;;;;5012793;28;20095;-60
2022/05/28 04:56:22;;;;;;;6.90;1.30;;;;;;;;;;5012056;28;20022;-60
2022/05/28 04:58:48;;;;;;;1.58;0.85;;;;;;;;;;5012440;28;20029;-60
2022/05/28 05:01:15;;;;;;;5.38;1.20;;;;;;;;;;5011801;28;20030;-59
2022/05/28 05:03:41;;;;;;;4.60;1.02;;;;;;;;;;5012457;28;20041;-60
2022/05/28 05:06:07;;;;;;;3.95;1.02;;;;;;;;;;5011820;28;20029;-59
2022/05/28 05:08:33;;;;;;;3.88;1.95;;;;;;;;;;5011674;28;20034;-60
2022/05/28 05:11:00;;;;;;;2.55;1.15;;;;;;;;;;5011331;28;20025;-60
2022/05/28 05:13:26;;;;;;;2.65;1.65;;;;;;;;;;5010074;28;20033;-60
2022/05/28 05:15:52;;;;;;;4.57;1.00;;;;;;;;;;5008474;28;20021;-60
2022/05/28 05:18:18;;;;;;;2.97;1.23;;;;;;;;;;5010017;28;20026;-59
2022/05/28 05:20:44;;;;;;;3.03;1.30;;;;;;;;;;5011092;28;20030;-60
2022/05/28 05:23:11;;;;;;;4.85;1.70;;;;;;;;;;5010368;28;20076;-59
2022/05/28 05:25:37;;;;;;;6.25;2.30;;;;;;;;;;5011236;28;20422;-60
2022/05/28 05:28:03;;;;;;;5.53;1.30;;;;;;;;;;5010850;28;20549;-60
2022/05/28 05:30:29;;;;;;;4.95;1.38;;;;;;;;;;5010754;28;20568;-59
2022/05/28 05:32:55;;;;;;;4.00;1.17;;;;;;;;;;4997571;28;20022;-58
2022/05/28 05:35:21;;;;;;;8.00;1.25;;;;;;;;;;5011100;28;20029;-60
2022/05/28 05:37:48;;;;;;;4.35;1.50;;;;;;;;;;5013222;28;20033;-59
2022/05/28 05:40:14;;;;;;;7.45;1.55;;;;;;;;;;5000940;28;20029;-59
2022/05/28 05:42:40;;;;;;;6.43;1.70;;;;;;;;;;5009413;28;20022;-59
2022/05/28 05:45:07;;;;;;;4.88;1.60;;;;;;;;;;5010037;28;20088;-59
2022/05/28 05:47:33;;;;;;;6.63;1.30;;;;;;;;;;5010873;28;20494;-59
2022/05/28 05:49:59;;;;;;;7.80;1.83;;;;;;;;;;5012185;28;20033;-59
2022/05/28 05:52:25;;;;;;;9.50;1.73;;;;;;;;;;5010744;28;20033;-59
2022/05/28 05:54:51;;;;;;;5.57;1.85;;;;;;;;;;5011679;28;20385;-59
2022/05/28 05:57:17;;;;;;;6.47;1.48;;;;;;;;;;5011220;28;20029;-59
2022/05/28 05:59:44;;;;;;;9.13;1.77;;;;;;;;;;5011565;28;20026;-59
2022/05/28 06:02:10;;;;;;;7.53;2.08;;;;;;;;;;5015854;28;20037;-59
2022/05/28 06:04:36;;;;;;;5.70;1.60;;;;;;;;;;5010128;28;20073;-59
2022/05/28 06:07:04;;;;;;;7.28;2.05;;;;;;;;;;5018068;28;20040;-60
2022/05/28 06:09:30;;;;;;;7.03;1.92;;;;;;;;;;5018785;28;20490;-59
2022/05/28 06:11:56;;;;;;;8.80;1.77;;;;;;;;;;5018181;28;20170;-59
2022/05/28 06:14:22;;;;;;;7.97;1.80;;;;;;;;;;5016786;28;20159;-59
2022/05/28 06:16:48;;;;;;;7.57;2.05;;;;;;;;;;5017858;28;20038;-59
2022/05/28 06:19:14;;;;;;;7.65;2.05;;;;;;;;;;5017126;28;20099;-59
2022/05/28 06:21:40;;;;;;;9.30;1.30;;;;;;;;;;5017948;28;20386;-59
2022/05/28 06:24:06;;;;;;;5.63;1.67;;;;;;;;;;5017809;28;20026;-60
2022/05/28 06:26:32;;;;;;;2.72;1.08;;;;;;;;;;5017368;28;20088;-61
2022/05/28 06:28:58;;;;;;;7.80;2.17;;;;;;;;;;5018101;28;20033;-57
2022/05/28 06:31:24;;;;;;;8.40;1.42;;;;;;;;;;5016959;28;20030;-58
2022/05/28 06:33:50;;;;;;;5.20;1.10;;;;;;;;;;5017835;28;20028;-59
2022/05/28 06:36:16;;;;;;;13.82;1.50;;;;;;;;;;5016627;28;20068;-63
2022/05/28 06:38:42;;;;;;;5.60;1.60;;;;;;;;;;5017579;28;20065;-58
2022/05/28 06:41:09;;;;;;;5.93;1.20;;;;;;;;;;5017610;28;20521;-59
2022/05/28 06:43:35;;;;;;;5.57;1.60;;;;;;;;;;5017120;28;20068;-61
2022/05/28 06:46:05;;;;;;;5.05;1.38;;;;;;;;;;5017696;28;20050;-60
2022/05/28 06:48:31;;;;;;;5.40;1.33;;;;;;;;;;5017161;28;20029;-61
2022/05/28 06:51:03;;;;;;;6.43;1.38;;;;;;;;;;5017495;28;20391;-62
2022/05/28 06:53:32;;;;;;;3.05;0.80;;;;;;;;;;5016713;28;20992;-63
2022/05/28 06:55:58;;;;;;;5.72;0.90;;;;;;;;;;5017504;28;20470;-62
2022/05/28 06:58:24;;;;;;;4.47;1.13;;;;;;;;;;5016757;28;20026;-63
2022/05/28 07:00:51;;;;;;;5.15;1.27;;;;;;;;;;5017506;28;20057;-64
2022/05/28 07:03:19;;;;;;;3.65;1.05;;;;;;;;;;5016708;28;20041;-62
2022/05/28 07:05:45;;;;;;;3.72;0.82;;;;;;;;;;5016457;28;20072;-63
2022/05/28 07:08:11;;;;;;;4.72;1.55;;;;;;;;;;5017159;28;20092;-59
2022/05/28 07:10:40;;;;;;;5.55;1.20;;;;;;;;;;5017143;28;20112;-62
2022/05/28 07:13:06;;;;;;;4.50;1.00;;;;;;;;;;5015222;28;20105;-61
2022/05/28 07:15:32;;;;;;;2.10;0.80;;;;;;;;;;5013563;28;20878;-60
2022/05/28 07:17:58;;;;;;;3.38;1.02;;;;;;;;;;5014427;28;20109;-62
2022/05/28 07:20:24;;;;;;;1.95;1.08;;;;;;;;;;5013712;28;20110;-61
2022/05/28 07:22:50;;;;;;;7.40;1.60;;;;;;;;;;5014907;28;20476;-61
2022/05/28 07:25:16;;;;;;;4.68;1.23;;;;;;;;;;5013584;28;20026;-58
2022/05/28 07:27:42;;;;;;;1.55;0.80;;;;;;;;;;5014332;28;20052;-61
2022/05/28 07:30:09;;;;;;;3.38;0.88;;;;;;;;;;5013989;28;20372;-58
2022/05/28 07:32:35;;;;;;;4.05;1.00;;;;;;;;;;5013252;28;20440;-61
2022/05/28 07:35:01;;;;;;;4.45;1.23;;;;;;;;;;5013848;28;20022;-57
2022/05/28 07:37:29;;;;;;;4.57;1.00;;;;;;;;;;5013110;28;20062;-61
2022/05/28 07:39:55;;;;;;;3.45;1.00;;;;;;;;;;5013393;28;20093;-61
2022/05/28 07:42:21;;;;;;;2.97;0.80;;;;;;;;;;5013261;28;20065;-57
2022/05/28 07:44:47;;;;;;;4.45;1.10;;;;;;;;;;5013764;28;20045;-60
2022/05/28 07:47:13;;;;;;;2.75;1.35;;;;;;;;;;5012424;28;20504;-59
2022/05/28 07:49:39;;;;;;;3.90;0.80;;;;;;;;;;5013228;28;20061;-62
2022/05/28 07:52:06;;;;;;;4.10;1.00;;;;;;;;;;5012809;28;20042;-61
2022/05/28 07:54:32;;;;;;;1.23;0.60;;;;;;;;;;5011986;28;20479;-63
2022/05/28 07:56:58;;;;;;;3.20;1.13;;;;;;;;;;5013312;28;20026;-62
2022/05/28 07:59:24;;;;;;;3.50;1.08;;;;;;;;;;5012855;28;20033;-53
2022/05/28 08:01:50;;;;;;;1.83;0.82;;;;;;;;;;5013011;28;20022;-63
2022/05/28 08:04:17;;;;;;;2.10;0.82;;;;;;;;;;5012394;28;20474;-61
2022/05/28 08:06:43;;;;;;;2.85;0.95;;;;;;;;;;5012714;28;20371;-64
2022/05/28 08:09:10;;;;;;;1.70;0.65;;;;;;;;;;5011504;28;20057;-59
2022/05/28 08:11:37;;;;;;;2.97;0.85;;;;;;;;;;5011577;28;20030;-60
2022/05/28 08:14:03;;;;;;;2.28;0.80;;;;;;;;;;5011696;28;20111;-59
2022/05/28 08:16:29;;;;;;;2.00;0.70;;;;;;;;;;5011229;28;20551;-60
2022/05/28 08:18:56;;;;;;;3.17;0.95;;;;;;;;;;5011772;28;20097;-62
2022/05/28 08:24:07;;;;;;;3.65;1.30;;;;;;;;;;5011575;28;20108;-59
2022/05/28 08:26:35;;;;;;;2.47;0.82;;;;;;;;;;5010700;28;20025;-62
2022/05/28 08:29:01;;;;;;;3.60;0.85;;;;;;;;;;5011802;28;20037;-61
2022/05/28 08:31:27;;;;;;;4.57;1.08;;;;;;;;;;4993249;28;20026;-60
2022/05/28 08:33:53;;;;;;;1.00;0.52;;;;;;;;;;5011839;28;20108;-59
2022/05/28 08:36:19;;;;;;;2.65;0.75;;;;;;;;;;5010788;28;20475;-59
2022/05/28 08:38:46;;;;;;;2.33;0.70;;;;;;;;;;5011553;28;20104;-60
2022/05/28 08:41:23;;;;;;;2.88;0.98;;;;;;;;;;5011197;28;20040;-59
2022/05/28 08:44:00;;;;;;;1.35;0.70;;;;;;;;;;5009966;28;20020;-61
2022/05/28 08:46:27;;;;;;;2.45;0.57;;;;;;;;;;5010552;28;20046;-60
2022/05/28 08:48:54;;;;;;;2.28;0.75;;;;;;;;;;5011144;28;20446;-61
2022/05/28 08:51:39;;;;;;;2.65;0.82;;;;;;;;;;5010813;28;20368;-60
2022/05/28 08:54:20;;;;;;;2.42;1.55;;;;;;;;;;5010699;28;20387;-60
2022/05/28 08:56:46;;;;;;;1.10;0.50;;;;;;;;;;5011103;28;20034;-60
2022/05/28 08:59:19;;;;;;;3.22;0.80;;;;;;;;;;5011505;28;20030;-60
2022/05/28 09:01:45;;;;;;;2.60;0.60;;;;;;;;;;5012418;28;20100;-60
2022/05/28 09:04:13;;;;;;;2.28;0.77;;;;;;;;;;5012116;28;20037;-61
2022/05/28 09:06:41;;;;;;;1.58;0.50;;;;;;;;;;5011911;28;20028;-62
2022/05/28 09:09:09;;;;;;;1.67;0.98;;;;;;;;;;5011997;28;20562;-60
2022/05/28 09:11:35;;;;;;;1.85;0.75;;;;;;;;;;5011333;28;20034;-61
2022/05/28 09:14:24;;;;;;;1.30;0.60;;;;;;;;;;5012588;28;20080;-60
2022/05/28 09:16:51;;;;;;;3.13;0.70;;;;;;;;;;5002319;28;20046;-61
2022/05/28 09:19:19;;;;;;;1.77;0.60;;;;;;;;;;5011692;28;20034;-60
2022/05/28 09:21:45;;;;;;;2.17;0.80;;;;;;;;;;5012245;28;20030;-60
2022/05/28 09:24:17;;;;;;;2.28;0.65;;;;;;;;;;5012361;28;20121;-63
2022/05/28 09:27:01;;;;;;;4.93;1.38;;;;;;;;;;5011842;28;20030;-61
2022/05/28 09:29:30;;;;;;;7.57;1.45;;;;;;;;;;5011311;28;20045;-61
2022/05/28 09:32:05;;;;;;;1.60;0.70;;;;;;;;;;5004372;28;20026;-61
2022/05/28 09:34:50;;;;;;;1.92;0.75;;;;;;;;;;5011192;28;20022;-61
2022/05/28 09:37:22;;;;;;;2.85;0.80;;;;;;;;;;5005146;28;20069;-60
2022/05/28 09:40:03;;;;;;;2.13;0.68;;;;;;;;;;5011920;28;20018;-61
2022/05/28 09:42:41;;;;;;;3.35;0.82;;;;;;;;;;5010893;28;20037;-62
2022/05/28 09:45:07;;;;;;;5.07;1.10;;;;;;;;;;5011614;28;20165;-61
2022/05/28 09:47:43;;;;;;;10.55;1.50;;;;;;;;;;5010850;28;20045;-61
2022/05/28 09:50:17;;;;;;;2.78;1.15;;;;;;;;;;5011685;28;20475;-60
2022/05/28 09:55:27;;;;;;;2.47;1.02;;;;;;;;;;5007697;28;20160;-61
2022/05/28 09:57:58;;;;;;;2.72;1.00;;;;;;;;;;5011063;28;20097;-61
2022/05/28 10:00:24;;;;;;;2.17;1.00;;;;;;;;;;5010537;28;20360;-59
2022/05/28 10:05:42;;;;;;;3.63;1.02;;;;;;;;;;5003990;28;20091;-61
2022/05/28 10:08:14;;;;;;;3.90;1.00;;;;;;;;;;5011142;28;20073;-61
2022/05/28 10:10:40;;;;;;;4.05;0.68;;;;;;;;;;5010908;28;20101;-61
2022/05/28 10:13:06;;;;;;;3.17;1.20;;;;;;;;;;5011450;28;20045;-66
2022/05/28 10:15:37;;;;;;;3.20;1.15;;;;;;;;;;5010046;28;20038;-64
2022/05/28 10:18:08;;;;;;;5.32;0.80;;;;;;;;;;5004887;28;20034;-62
2022/05/28 10:20:34;;;;;;;5.63;0.90;;;;;;;;;;5000583;28;20489;-63
2022/05/28 10:23:02;;;;;;;3.63;0.70;;;;;;;;;;4997107;28;20030;-64
2022/05/28 10:25:41;;;;;;;2.13;1.42;;;;;;;;;;5013330;28;20033;-69
2022/05/28 10:28:08;;;;;;;5.35;0.85;;;;;;;;;;5012485;28;20026;-61
2022/05/28 10:30:44;;;;;;;5.13;1.15;;;;;;;;;;5009975;28;20022;-62
2022/05/28 10:33:28;;;;;;;3.33;0.73;;;;;;;;;;5010375;28;20045;-61
2022/05/28 10:36:05;;;;;;;5.35;1.20;;;;;;;;;;5010841;28;20030;-60
2022/05/28 10:38:31;;;;;;;3.58;0.73;;;;;;;;;;5009122;28;20065;-61
2022/05/28 10:40:59;;;;;;;4.93;1.40;;;;;;;;;;5010147;28;20064;-57
2022/05/28 10:43:30;;;;;;;3.30;1.05;;;;;;;;;;5009326;28;20102;-61
2022/05/28 10:46:18;;;;;;;4.47;1.07;;;;;;;;;;5010063;28;20475;-62
2022/05/28 10:48:50;;;;;;;3.40;1.10;;;;;;;;;;5010690;28;20038;-61
2022/05/28 10:51:16;;;;;;;;;;;;;;;;;;5013842;28;20022;-58
2022/05/28 10:54:00;;;;;;;6.43;1.73;;;;;;;;;;5013002;28;19909;-66
2022/05/28 10:56:46;;;;;;;4.90;1.02;;;;;;;;;;5011114;28;20030;-60
2022/05/28 10:59:24;;;;;;;5.88;1.92;;;;;;;;;;5013310;28;20037;-62
2022/05/28 11:02:05;;;;;;;2.60;0.95;;;;;;;;;;5014844;28;20108;-60
2022/05/28 11:04:50;;;;;;;2.67;0.90;;;;;;;;;;5013918;28;20053;-61
2022/05/28 11:07:16;;;;;;;4.57;0.90;;;;;;;;;;5014474;28;20038;-59
2022/05/28 11:09:50;;;;;;;2.00;0.70;;;;;;;;;;5013983;28;20026;-66
2022/05/28 11:12:28;;;;;;;2.35;0.90;;;;;;;;;;5014433;28;20026;-60
2022/05/28 11:15:04;;;;;;;2.13;0.82;;;;;;;;;;5012902;28;20037;-63
2022/05/28 11:17:32;;;;;;;4.50;0.90;;;;;;;;;;5012699;28;20538;-61
2022/05/28 11:19:58;;;;;;;1.67;0.93;;;;;;;;;;5011600;28;20487;-63
2022/05/28 11:22:49;;;;;;;2.42;0.82;;;;;;;;;;5012275;28;20101;-63
2022/05/28 11:25:24;;;;;;;2.15;0.80;;;;;;;;;;5012610;28;20022;-62
2022/05/28 11:28:06;;;;;;;3.58;0.98;;;;;;;;;;5013128;28;20058;-62
2022/05/28 11:30:44;;;;;;;5.40;1.00;;;;;;;;;;5011793;28;20546;-61
2022/05/28 11:33:10;;;;;;;2.97;0.70;;;;;;;;;;5013230;28;20616;-62
2022/05/28 11:35:55;;;;;;;3.70;1.27;;;;;;;;;;5012560;28;20026;-62
2022/05/28 11:38:24;;;;;;;4.18;1.00;;;;;;;;;;5010044;28;20044;-61
2022/05/28 11:40:50;;;;;;;4.70;0.98;;;;;;;;;;5013162;28;20139;-65
2022/05/28 11:43:28;;;;;;;5.13;1.05;;;;;;;;;;5012175;28;20101;-60
2022/05/28 11:46:13;;;;;;;4.00;1.00;;;;;;;;;;5012265;28;20042;-61
2022/05/28 11:51:53;;;;;;;3.80;0.90;;;;;;;;;;5009286;28;20038;-63
2022/05/28 11:54:37;;;;;;;1.17;0.50;;;;;;;;;;5009655;28;20017;-61
2022/05/28 11:57:05;;;;;;;2.30;0.80;;;;;;;;;;5012799;28;20164;-62
2022/05/28 11:59:32;;;;;;;3.63;1.00;;;;;;;;;;5011139;28;20026;-61
2022/05/28 12:02:03;;;;;;;2.03;0.47;;;;;;;;;;5009812;28;20384;-63
2022/05/28 12:04:30;;;;;;;4.75;1.00;;;;;;;;;;5012210;28;20056;-66
2022/05/28 12:07:02;;;;;;;5.05;1.17;;;;;;;;;;5012472;28;20030;-66
2022/05/28 12:09:29;;;;;;;3.40;0.80;;;;;;;;;;5011899;28;20123;-63
2022/05/28 12:12:14;;;;;;;2.55;0.75;;;;;;;;;;5012429;28;20029;-60
2022/05/28 12:14:41;;;;;;;2.10;0.73;;;;;;;;;;5008796;28;20061;-62
2022/05/28 12:17:19;;;;;;;1.85;0.65;;;;;;;;;;5012255;28;20535;-66
2022/05/28 12:19:47;;;;;;;2.50;0.77;;;;;;;;;;5010462;28;20534;-62
2022/05/28 12:22:28;;;;;;;2.05;0.85;;;;;;;;;;5012143;28;20037;-62
2022/05/28 12:25:25;;;;;;;2.63;0.63;;;;;;;;;;5012110;28;20033;-67
2022/05/28 12:27:57;;;;;;;3.65;0.98;;;;;;;;;;4991744;28;20053;-64
2022/05/28 12:30:26;;;;;;;2.78;0.70;;;;;;;;;;5009101;28;20112;-63
2022/05/28 12:32:52;;;;;;;3.00;0.73;;;;;;;;;;5011041;28;20494;-62
2022/05/28 12:35:18;;;;;;;4.13;1.25;;;;;;;;;;5011736;28;20037;-56
2022/05/28 12:38:13;;;;;;;2.10;0.70;;;;;;;;;;5011851;28;20034;-55
2022/05/28 12:40:53;;;;;;;1.50;0.60;;;;;;;;;;5008659;28;20030;-66
2022/05/28 12:43:39;;;;;;;3.50;0.80;;;;;;;;;;5011947;28;20034;-63
2022/05/28 12:46:17;;;;;;;3.80;1.02;;;;;;;;;;5010995;28;20395;-64
2022/05/28 12:48:44;;;;;;;3.67;0.88;;;;;;;;;;5009274;28;20479;-63
2022/05/28 12:51:26;;;;;;;5.72;0.75;;;;;;;;;;5011311;28;20061;-66
2022/05/28 12:53:54;;;;;;;5.50;0.95;;;;;;;;;;5010610;28;20069;-62
2022/05/28 12:56:23;;;;;;;2.28;0.80;;;;;;;;;;5011071;28;20032;-60
2022/05/28 12:58:49;;;;;;;2.63;0.63;;;;;;;;;;5011649;28;20032;-60
2022/05/28 13:01:26;;;;;;;4.15;0.90;;;;;;;;;;5011128;28;20053;-61
2022/05/28 13:03:52;;;;;;;2.85;1.67;;;;;;;;;;5011154;28;20739;-63
2022/05/28 13:06:23;;;;;;;5.68;0.77;;;;;;;;;;5011305;28;20105;-59
2022/05/28 13:09:15;;;;;;;2.65;0.70;;;;;;;;;;5011702;28;20036;-63
2022/05/28 13:11:42;;;;;;;;;;;;;;;;;;5004628;28;20038;-68
2022/05/28 13:14:20;;;;;;;5.68;1.08;;;;;;;;;;5011433;28;19956;-65
2022/05/28 13:16:55;;;;;;;3.00;0.77;;;;;;;;;;5010960;28;20034;-62
2022/05/28 13:19:24;;;;;;;3.38;1.13;;;;;;;;;;5008188;28;20053;-66
2022/05/28 13:21:59;;;;;;;5.18;1.13;;;;;;;;;;5011109;28;20054;-70
2022/05/28 13:24:44;;;;;;;3.63;0.90;;;;;;;;;;5008772;28;20026;-64
2022/05/28 13:27:19;;;;;;;2.15;0.77;;;;;;;;;;5010130;28;20349;-67
2022/05/28 13:30:03;;;;;;;3.13;1.13;;;;;;;;;;5009089;28;20033;-61
2022/05/28 13:32:34;;;;;;;2.85;0.98;;;;;;;;;;5009323;28;20030;-64
2022/05/28 13:35:12;;;;;;;3.85;0.85;;;;;;;;;;5010853;28;20052;-68
2022/05/28 13:37:39;;;;;;;4.40;0.90;;;;;;;;;;5008017;28;20041;-67
2022/05/28 13:40:06;;;;;;;2.38;1.00;;;;;;;;;;5010868;28;20529;-68
2022/05/28 13:42:34;;;;;;;3.55;1.25;;;;;;;;;;5010512;28;20025;-69
2022/05/28 13:45:00;;;;;;;1.55;0.65;;;;;;;;;;5009695;28;20383;-73
2022/05/28 13:47:29;;;;;;;4.95;1.40;;;;;;;;;;5010082;28;20065;-70
2022/05/28 13:49:58;;;;;;;1.65;0.65;;;;;;;;;;5010750;28;20097;-66
2022/05/28 13:52:24;;;;;;;2.33;0.75;;;;;;;;;;5010018;28;20022;-66
2022/05/28 13:55:03;;;;;;;5.68;0.82;;;;;;;;;;5010447;28;20018;-67
2022/05/28 13:57:40;;;;;;;2.88;0.70;;;;;;;;;;5008852;28;20033;-66
2022/05/28 14:00:11;;;;;;;2.40;0.70;;;;;;;;;;5008886;28;20548;-68
2022/05/28 14:02:38;;;;;;;2.63;0.55;;;;;;;;;;5009525;28;20026;-66
2022/05/28 14:05:04;;;;;;;4.85;1.42;;;;;;;;;;5010460;28;20153;-63
2022/05/28 14:07:33;;;;;;;1.42;0.73;;;;;;;;;;5009519;28;20037;-65
2022/05/28 14:10:00;;;;;;;4.00;0.80;;;;;;;;;;5010071;28;20036;-66
2022/05/28 14:12:34;;;;;;;3.17;0.70;;;;;;;;;;5009515;28;20022;-66
2022/05/28 14:15:02;;;;;;;4.93;0.93;;;;;;;;;;5011603;28;20356;-63
2022/05/28 14:17:29;;;;;;;3.08;0.77;;;;;;;;;;5006696;28;20054;-65
2022/05/28 14:19:57;;;;;;;4.07;1.15;;;;;;;;;;5011483;28;20029;-65
2022/05/28 14:22:33;;;;;;;4.50;0.98;;;;;;;;;;5003841;28;20022;-65
2022/05/28 14:25:01;;;;;;;1.92;0.73;;;;;;;;;;5015289;28;20510;-65
2022/05/28 14:27:28;;;;;;;3.70;1.20;;;;;;;;;;5013910;28;20870;-65
2022/05/28 14:29:55;;;;;;;5.68;0.98;;;;;;;;;;5014281;28;20021;-64
2022/05/28 14:32:28;;;;;;;4.13;0.90;;;;;;;;;;5013967;28;20411;-63
2022/05/28 14:34:55;;;;;;;1.92;0.60;;;;;;;;;;5013225;28;20029;-64
2022/05/28 14:37:31;;;;;;;2.28;0.90;;;;;;;;;;5013396;28;20494;-63
2022/05/28 14:39:58;;;;;;;2.13;0.63;;;;;;;;;;5014660;28;20097;-64
2022/05/28 14:42:39;;;;;;;3.05;0.90;;;;;;;;;;5013623;28;20033;-63
2022/05/28 14:45:10;;;;;;;2.13;1.00;;;;;;;;;;5014132;28;20026;-64
2022/05/28 14:47:36;;;;;;;1.42;0.50;;;;;;;;;;5013726;28;20065;-63
2022/05/28 14:50:05;;;;;;;3.90;0.85;;;;;;;;;;5014073;28;20072;-63
2022/05/28 14:52:33;;;;;;;1.48;0.70;;;;;;;;;;5013105;28;20431;-63
2022/05/28 14:55:01;;;;;;;1.60;0.50;;;;;;;;;;5014001;28;20030;-64
2022/05/28 14:57:30;;;;;;;2.30;0.57;;;;;;;;;;5011232;28;20029;-62
2022/05/28 14:59:57;;;;;;;2.92;0.75;;;;;;;;;;5013914;28;20058;-62
2022/05/28 15:02:25;;;;;;;2.58;0.90;;;;;;;;;;5013110;28;20497;-62
2022/05/28 15:04:52;;;;;;;1.83;0.90;;;;;;;;;;5013836;28;20026;-63
2022/05/28 15:07:24;;;;;;;3.20;0.70;;;;;;;;;;5013341;28;20026;-64